sensor_id;sensor_type;location;lat;lon;timestamp;P1;durP1;ratioP1;P2;durP2;ratioP2
34064;SDS011;20339;49.754;20.158;2024-02-23T00:00:47;1.20;;;0.90;;
34064;SDS011;20339;49.754;20.158;2024-02-23T00:03:41;1.20;;;0.70;;
34064;SDS011;20339;49.754;20.158;2024-02-23T00:06:19;1.00;;;0.70;;
34064;SDS011;20339;49.754;20.158;2024-02-23T00:08:55;1.20;;;0.90;;
34064;SDS011;20339;49.754;20.158;2024-02-23T00:11:29;1.20;;;0.80;;
34064;SDS011;20339;49.754;20.158;2024-02-23T00:14:03;0.80;;;0.70;;
34064;SDS011;20339;49.754;20.158;2024-02-23T00:16:39;1.00;;;0.80;;
34064;SDS011;20339;49.754;20.158;2024-02-23T00:19:13;0.90;;;0.80;;
34064;SDS011;20339;49.754;20.158;2024-02-23T00:21:54;2.30;;;0.80;;
34064;SDS011;20339;49.754;20.158;2024-02-23T00:24:30;2.50;;;1.10;;
34064;SDS011;20339;49.754;20.158;2024-02-23T00:27:05;1.30;;;0.80;;
34064;SDS011;20339;49.754;20.158;2024-02-23T00:29:36;2.50;;;1.10;;
34064;SDS011;20339;49.754;20.158;2024-02-23T00:32:16;1.30;;;0.80;;
34064;SDS011;20339;49.754;20.158;2024-02-23T00:34:50;2.20;;;0.80;;
34064;SDS011;20339;49.754;20.158;2024-02-23T00:37:21;2.90;;;0.80;;
34064;SDS011;20339;49.754;20.158;2024-02-23T00:39:55;1.60;;;1.20;;
34064;SDS011;20339;49.754;20.158;2024-02-23T00:42:30;1.90;;;1.00;;
34064;SDS011;20339;49.754;20.158;2024-02-23T00:45:04;1.10;;;0.80;;
34064;SDS011;20339;49.754;20.158;2024-02-23T00:47:39;2.10;;;0.80;;
34064;SDS011;20339;49.754;20.158;2024-02-23T00:50:12;1.50;;;0.80;;
34064;SDS011;20339;49.754;20.158;2024-02-23T00:52:44;1.70;;;1.00;;
34064;SDS011;20339;49.754;20.158;2024-02-23T00:55:17;1.90;;;1.00;;
34064;SDS011;20339;49.754;20.158;2024-02-23T00:57:58;1.80;;;1.00;;
34064;SDS011;20339;49.754;20.158;2024-02-23T01:00:31;1.70;;;1.00;;
34064;SDS011;20339;49.754;20.158;2024-02-23T01:03:05;2.80;;;1.50;;
34064;SDS011;20339;49.754;20.158;2024-02-23T01:05:44;1.50;;;1.20;;
34064;SDS011;20339;49.754;20.158;2024-02-23T01:08:16;2.30;;;1.20;;
34064;SDS011;20339;49.754;20.158;2024-02-23T01:10:49;1.70;;;1.10;;
34064;SDS011;20339;49.754;20.158;2024-02-23T01:13:24;1.70;;;1.10;;
34064;SDS011;20339;49.754;20.158;2024-02-23T01:15:55;7.80;;;1.60;;
34064;SDS011;20339;49.754;20.158;2024-02-23T01:18:30;2.20;;;1.50;;
34064;SDS011;20339;49.754;20.158;2024-02-23T01:21:05;1.40;;;1.10;;
34064;SDS011;20339;49.754;20.158;2024-02-23T01:23:40;2.20;;;1.60;;
34064;SDS011;20339;49.754;20.158;2024-02-23T01:26:11;1.90;;;0.90;;
34064;SDS011;20339;49.754;20.158;2024-02-23T01:28:43;1.30;;;1.00;;
34064;SDS011;20339;49.754;20.158;2024-02-23T01:31:15;3.00;;;1.50;;
34064;SDS011;20339;49.754;20.158;2024-02-23T01:33:51;2.00;;;1.40;;
34064;SDS011;20339;49.754;20.158;2024-02-23T01:36:26;2.00;;;1.40;;
34064;SDS011;20339;49.754;20.158;2024-02-23T01:38:58;3.40;;;1.70;;
34064;SDS011;20339;49.754;20.158;2024-02-23T01:41:29;1.20;;;1.00;;
34064;SDS011;20339;49.754;20.158;2024-02-23T01:44:03;2.20;;;1.30;;
34064;SDS011;20339;49.754;20.158;2024-02-23T01:46:40;2.00;;;1.30;;
34064;SDS011;20339;49.754;20.158;2024-02-23T01:49:13;1.50;;;1.20;;
34064;SDS011;20339;49.754;20.158;2024-02-23T01:51:51;1.50;;;1.20;;
34064;SDS011;20339;49.754;20.158;2024-02-23T01:54:27;1.50;;;1.20;;
34064;SDS011;20339;49.754;20.158;2024-02-23T01:57:01;2.30;;;1.30;;
34064;SDS011;20339;49.754;20.158;2024-02-23T01:59:35;1.40;;;1.10;;
34064;SDS011;20339;49.754;20.158;2024-02-23T02:02:09;1.80;;;1.10;;
34064;SDS011;20339;49.754;20.158;2024-02-23T02:04:40;1.90;;;1.40;;
34064;SDS011;20339;49.754;20.158;2024-02-23T02:07:14;2.90;;;1.10;;
34064;SDS011;20339;49.754;20.158;2024-02-23T02:09:48;2.30;;;1.40;;
34064;SDS011;20339;49.754;20.158;2024-02-23T02:12:28;1.70;;;1.10;;
34064;SDS011;20339;49.754;20.158;2024-02-23T02:15:02;1.50;;;1.20;;
34064;SDS011;20339;49.754;20.158;2024-02-23T02:17:37;2.50;;;1.00;;
34064;SDS011;20339;49.754;20.158;2024-02-23T02:20:14;2.90;;;1.20;;
34064;SDS011;20339;49.754;20.158;2024-02-23T02:22:47;1.70;;;1.10;;
34064;SDS011;20339;49.754;20.158;2024-02-23T02:25:18;2.30;;;1.20;;
34064;SDS011;20339;49.754;20.158;2024-02-23T02:27:51;1.60;;;1.30;;
34064;SDS011;20339;49.754;20.158;2024-02-23T02:30:27;2.50;;;1.30;;
34064;SDS011;20339;49.754;20.158;2024-02-23T02:33:02;2.40;;;1.10;;
34064;SDS011;20339;49.754;20.158;2024-02-23T02:35:38;2.10;;;1.30;;
34064;SDS011;20339;49.754;20.158;2024-02-23T02:38:16;2.50;;;1.50;;
34064;SDS011;20339;49.754;20.158;2024-02-23T02:40:49;2.60;;;1.60;;
34064;SDS011;20339;49.754;20.158;2024-02-23T02:43:21;2.30;;;1.20;;
34064;SDS011;20339;49.754;20.158;2024-02-23T02:46:03;2.40;;;1.60;;
34064;SDS011;20339;49.754;20.158;2024-02-23T02:48:39;3.20;;;1.50;;
34064;SDS011;20339;49.754;20.158;2024-02-23T02:51:15;3.50;;;1.80;;
34064;SDS011;20339;49.754;20.158;2024-02-23T02:53:49;4.70;;;2.20;;
34064;SDS011;20339;49.754;20.158;2024-02-23T02:56:21;1.70;;;1.20;;
34064;SDS011;20339;49.754;20.158;2024-02-23T02:58:57;2.60;;;1.80;;
34064;SDS011;20339;49.754;20.158;2024-02-23T03:01:29;2.10;;;1.30;;
34064;SDS011;20339;49.754;20.158;2024-02-23T03:04:04;1.80;;;1.20;;
34064;SDS011;20339;49.754;20.158;2024-02-23T03:06:37;4.10;;;1.70;;
34064;SDS011;20339;49.754;20.158;2024-02-23T03:09:13;3.00;;;1.50;;
34064;SDS011;20339;49.754;20.158;2024-02-23T03:11:47;2.90;;;1.80;;
34064;SDS011;20339;49.754;20.158;2024-02-23T03:14:18;1.80;;;1.40;;
34064;SDS011;20339;49.754;20.158;2024-02-23T03:16:55;3.30;;;2.20;;
34064;SDS011;20339;49.754;20.158;2024-02-23T03:19:29;2.60;;;1.90;;
34064;SDS011;20339;49.754;20.158;2024-02-23T03:22:02;2.10;;;1.60;;
34064;SDS011;20339;49.754;20.158;2024-02-23T03:24:36;2.50;;;1.70;;
34064;SDS011;20339;49.754;20.158;2024-02-23T03:27:12;2.90;;;2.00;;
34064;SDS011;20339;49.754;20.158;2024-02-23T03:29:48;1.60;;;1.20;;
34064;SDS011;20339;49.754;20.158;2024-02-23T03:32:21;3.70;;;1.70;;
34064;SDS011;20339;49.754;20.158;2024-02-23T03:34:59;3.80;;;1.50;;
34064;SDS011;20339;49.754;20.158;2024-02-23T03:37:33;2.70;;;1.70;;
34064;SDS011;20339;49.754;20.158;2024-02-23T03:40:11;3.70;;;2.30;;
34064;SDS011;20339;49.754;20.158;2024-02-23T03:42:46;3.20;;;2.10;;
34064;SDS011;20339;49.754;20.158;2024-02-23T03:45:20;2.60;;;1.50;;
34064;SDS011;20339;49.754;20.158;2024-02-23T03:47:53;3.10;;;1.90;;
34064;SDS011;20339;49.754;20.158;2024-02-23T03:50:32;2.90;;;2.10;;
34064;SDS011;20339;49.754;20.158;2024-02-23T03:53:04;2.60;;;1.60;;
34064;SDS011;20339;49.754;20.158;2024-02-23T03:55:36;2.40;;;1.80;;
34064;SDS011;20339;49.754;20.158;2024-02-23T03:58:13;2.00;;;1.50;;
34064;SDS011;20339;49.754;20.158;2024-02-23T04:00:47;3.60;;;2.10;;
34064;SDS011;20339;49.754;20.158;2024-02-23T04:03:21;3.60;;;2.30;;
34064;SDS011;20339;49.754;20.158;2024-02-23T04:05:57;3.80;;;2.00;;
34064;SDS011;20339;49.754;20.158;2024-02-23T04:08:32;2.70;;;1.70;;
34064;SDS011;20339;49.754;20.158;2024-02-23T04:11:07;2.30;;;1.80;;
34064;SDS011;20339;49.754;20.158;2024-02-23T04:13:42;2.60;;;2.00;;
34064;SDS011;20339;49.754;20.158;2024-02-23T04:16:25;2.00;;;1.60;;
34064;SDS011;20339;49.754;20.158;2024-02-23T04:18:57;3.90;;;1.80;;
34064;SDS011;20339;49.754;20.158;2024-02-23T04:21:34;2.30;;;1.60;;
34064;SDS011;20339;49.754;20.158;2024-02-23T04:24:08;2.30;;;1.90;;
34064;SDS011;20339;49.754;20.158;2024-02-23T04:26:42;3.10;;;1.90;;
34064;SDS011;20339;49.754;20.158;2024-02-23T04:29:13;2.20;;;1.60;;
34064;SDS011;20339;49.754;20.158;2024-02-23T04:31:47;4.20;;;2.00;;
34064;SDS011;20339;49.754;20.158;2024-02-23T04:34:19;3.90;;;1.40;;
34064;SDS011;20339;49.754;20.158;2024-02-23T04:36:51;2.00;;;1.40;;
34064;SDS011;20339;49.754;20.158;2024-02-23T04:39:25;1.90;;;1.30;;
34064;SDS011;20339;49.754;20.158;2024-02-23T04:41:57;1.70;;;1.50;;
34064;SDS011;20339;49.754;20.158;2024-02-23T04:44:32;2.00;;;1.00;;
34064;SDS011;20339;49.754;20.158;2024-02-23T04:47:04;1.50;;;1.30;;
34064;SDS011;20339;49.754;20.158;2024-02-23T04:49:37;1.90;;;1.30;;
34064;SDS011;20339;49.754;20.158;2024-02-23T04:52:12;2.00;;;1.30;;
34064;SDS011;20339;49.754;20.158;2024-02-23T04:54:43;1.50;;;1.30;;
34064;SDS011;20339;49.754;20.158;2024-02-23T04:57:14;1.60;;;1.10;;
34064;SDS011;20339;49.754;20.158;2024-02-23T04:59:46;2.00;;;1.50;;
34064;SDS011;20339;49.754;20.158;2024-02-23T05:02:20;2.00;;;1.30;;
34064;SDS011;20339;49.754;20.158;2024-02-23T05:04:51;1.80;;;1.20;;
34064;SDS011;20339;49.754;20.158;2024-02-23T05:07:25;2.10;;;1.20;;
34064;SDS011;20339;49.754;20.158;2024-02-23T05:10:00;1.70;;;1.10;;
34064;SDS011;20339;49.754;20.158;2024-02-23T05:12:37;2.20;;;1.20;;
34064;SDS011;20339;49.754;20.158;2024-02-23T05:15:09;2.30;;;1.30;;
34064;SDS011;20339;49.754;20.158;2024-02-23T05:17:41;1.90;;;1.10;;
34064;SDS011;20339;49.754;20.158;2024-02-23T05:20:17;1.30;;;0.80;;
34064;SDS011;20339;49.754;20.158;2024-02-23T05:22:50;1.80;;;1.10;;
34064;SDS011;20339;49.754;20.158;2024-02-23T05:25:22;2.20;;;1.10;;
34064;SDS011;20339;49.754;20.158;2024-02-23T05:27:55;1.40;;;0.90;;
34064;SDS011;20339;49.754;20.158;2024-02-23T05:30:32;2.30;;;1.40;;
34064;SDS011;20339;49.754;20.158;2024-02-23T05:33:06;1.30;;;1.10;;
34064;SDS011;20339;49.754;20.158;2024-02-23T05:35:38;1.50;;;1.00;;
34064;SDS011;20339;49.754;20.158;2024-02-23T05:38:13;1.10;;;0.90;;
34064;SDS011;20339;49.754;20.158;2024-02-23T05:40:47;1.30;;;0.90;;
34064;SDS011;20339;49.754;20.158;2024-02-23T05:43:20;1.30;;;0.80;;
34064;SDS011;20339;49.754;20.158;2024-02-23T05:45:54;0.80;;;0.70;;
34064;SDS011;20339;49.754;20.158;2024-02-23T05:48:29;3.10;;;1.30;;
34064;SDS011;20339;49.754;20.158;2024-02-23T05:51:06;1.90;;;0.80;;
34064;SDS011;20339;49.754;20.158;2024-02-23T05:53:41;2.90;;;1.20;;
34064;SDS011;20339;49.754;20.158;2024-02-23T05:56:17;1.40;;;1.00;;
34064;SDS011;20339;49.754;20.158;2024-02-23T05:58:52;1.10;;;0.70;;
34064;SDS011;20339;49.754;20.158;2024-02-23T06:01:25;1.60;;;0.60;;
34064;SDS011;20339;49.754;20.158;2024-02-23T06:04:00;1.60;;;0.60;;
34064;SDS011;20339;49.754;20.158;2024-02-23T06:06:34;0.60;;;0.60;;
34064;SDS011;20339;49.754;20.158;2024-02-23T06:09:07;1.20;;;0.70;;
34064;SDS011;20339;49.754;20.158;2024-02-23T06:11:42;0.90;;;0.70;;
34064;SDS011;20339;49.754;20.158;2024-02-23T06:14:13;0.80;;;0.80;;
34064;SDS011;20339;49.754;20.158;2024-02-23T06:16:47;1.60;;;0.80;;
34064;SDS011;20339;49.754;20.158;2024-02-23T06:19:19;1.20;;;0.90;;
34064;SDS011;20339;49.754;20.158;2024-02-23T06:21:50;1.10;;;0.90;;
34064;SDS011;20339;49.754;20.158;2024-02-23T06:24:30;2.30;;;0.80;;
34064;SDS011;20339;49.754;20.158;2024-02-23T06:27:04;2.60;;;1.10;;
34064;SDS011;20339;49.754;20.158;2024-02-23T06:29:40;1.40;;;1.00;;
34064;SDS011;20339;49.754;20.158;2024-02-23T06:32:16;1.90;;;0.90;;
34064;SDS011;20339;49.754;20.158;2024-02-23T06:34:49;2.30;;;1.30;;
34064;SDS011;20339;49.754;20.158;2024-02-23T06:37:24;1.60;;;1.00;;
34064;SDS011;20339;49.754;20.158;2024-02-23T06:39:57;1.50;;;1.10;;
34064;SDS011;20339;49.754;20.158;2024-02-23T06:42:32;1.20;;;0.90;;
34064;SDS011;20339;49.754;20.158;2024-02-23T06:45:07;1.10;;;0.90;;
34064;SDS011;20339;49.754;20.158;2024-02-23T06:47:39;2.70;;;1.30;;
34064;SDS011;20339;49.754;20.158;2024-02-23T06:50:13;1.40;;;0.90;;
34064;SDS011;20339;49.754;20.158;2024-02-23T06:52:47;2.10;;;1.40;;
34064;SDS011;20339;49.754;20.158;2024-02-23T06:55:19;2.20;;;1.20;;
34064;SDS011;20339;49.754;20.158;2024-02-23T06:57:56;3.30;;;1.70;;
34064;SDS011;20339;49.754;20.158;2024-02-23T07:00:30;1.30;;;1.00;;
34064;SDS011;20339;49.754;20.158;2024-02-23T07:03:07;1.30;;;1.00;;
34064;SDS011;20339;49.754;20.158;2024-02-23T07:05:39;2.10;;;1.30;;
34064;SDS011;20339;49.754;20.158;2024-02-23T07:08:16;3.50;;;1.90;;
34064;SDS011;20339;49.754;20.158;2024-02-23T07:10:48;1.70;;;1.00;;
34064;SDS011;20339;49.754;20.158;2024-02-23T07:13:23;1.70;;;1.40;;
34064;SDS011;20339;49.754;20.158;2024-02-23T07:15:55;2.20;;;1.60;;
34064;SDS011;20339;49.754;20.158;2024-02-23T07:18:30;2.40;;;1.40;;
34064;SDS011;20339;49.754;20.158;2024-02-23T07:21:08;2.00;;;1.40;;
34064;SDS011;20339;49.754;20.158;2024-02-23T07:23:39;2.30;;;1.40;;
34064;SDS011;20339;49.754;20.158;2024-02-23T07:26:11;1.70;;;1.10;;
34064;SDS011;20339;49.754;20.158;2024-02-23T07:28:42;1.80;;;1.10;;
34064;SDS011;20339;49.754;20.158;2024-02-23T07:31:18;2.90;;;1.50;;
34064;SDS011;20339;49.754;20.158;2024-02-23T07:33:55;1.50;;;1.10;;
34064;SDS011;20339;49.754;20.158;2024-02-23T07:36:30;1.20;;;0.80;;
34064;SDS011;20339;49.754;20.158;2024-02-23T07:39:06;2.00;;;1.20;;
34064;SDS011;20339;49.754;20.158;2024-02-23T07:41:39;2.00;;;1.30;;
34064;SDS011;20339;49.754;20.158;2024-02-23T07:44:13;1.90;;;1.30;;
34064;SDS011;20339;49.754;20.158;2024-02-23T07:46:47;1.80;;;1.20;;
34064;SDS011;20339;49.754;20.158;2024-02-23T07:49:20;2.10;;;1.50;;
34064;SDS011;20339;49.754;20.158;2024-02-23T07:51:55;2.30;;;1.70;;
34064;SDS011;20339;49.754;20.158;2024-02-23T07:54:29;2.90;;;1.10;;
34064;SDS011;20339;49.754;20.158;2024-02-23T07:57:07;2.00;;;1.00;;
34064;SDS011;20339;49.754;20.158;2024-02-23T07:59:38;1.90;;;1.30;;
34064;SDS011;20339;49.754;20.158;2024-02-23T08:02:10;2.70;;;1.40;;
34064;SDS011;20339;49.754;20.158;2024-02-23T08:04:46;2.90;;;1.50;;
34064;SDS011;20339;49.754;20.158;2024-02-23T08:07:20;2.80;;;1.20;;
34064;SDS011;20339;49.754;20.158;2024-02-23T08:09:55;3.50;;;1.50;;
34064;SDS011;20339;49.754;20.158;2024-02-23T08:12:29;3.20;;;1.30;;
34064;SDS011;20339;49.754;20.158;2024-02-23T08:15:06;2.60;;;1.60;;
34064;SDS011;20339;49.754;20.158;2024-02-23T08:17:41;2.70;;;1.60;;
34064;SDS011;20339;49.754;20.158;2024-02-23T08:20:15;4.20;;;2.00;;
34064;SDS011;20339;49.754;20.158;2024-02-23T08:22:51;3.20;;;1.80;;
34064;SDS011;20339;49.754;20.158;2024-02-23T08:25:23;2.60;;;1.70;;
34064;SDS011;20339;49.754;20.158;2024-02-23T08:27:59;3.20;;;1.70;;
34064;SDS011;20339;49.754;20.158;2024-02-23T08:30:30;2.90;;;1.30;;
34064;SDS011;20339;49.754;20.158;2024-02-23T08:33:02;3.20;;;1.60;;
34064;SDS011;20339;49.754;20.158;2024-02-23T08:35:34;1.10;;;0.90;;
34064;SDS011;20339;49.754;20.158;2024-02-23T08:38:05;1.50;;;1.20;;
34064;SDS011;20339;49.754;20.158;2024-02-23T08:40:42;2.00;;;1.50;;
34064;SDS011;20339;49.754;20.158;2024-02-23T08:43:14;2.00;;;1.30;;
34064;SDS011;20339;49.754;20.158;2024-02-23T08:45:48;2.20;;;1.60;;
34064;SDS011;20339;49.754;20.158;2024-02-23T08:48:19;2.50;;;1.50;;
34064;SDS011;20339;49.754;20.158;2024-02-23T08:50:57;1.90;;;1.00;;
34064;SDS011;20339;49.754;20.158;2024-02-23T08:53:28;1.40;;;0.90;;
34064;SDS011;20339;49.754;20.158;2024-02-23T08:56:00;0.70;;;0.60;;
34064;SDS011;20339;49.754;20.158;2024-02-23T08:58:35;1.40;;;1.10;;
34064;SDS011;20339;49.754;20.158;2024-02-23T09:01:09;0.80;;;0.70;;
34064;SDS011;20339;49.754;20.158;2024-02-23T09:03:43;0.50;;;0.30;;
34064;SDS011;20339;49.754;20.158;2024-02-23T09:06:17;1.00;;;0.50;;
34064;SDS011;20339;49.754;20.158;2024-02-23T09:08:53;0.60;;;0.50;;
34064;SDS011;20339;49.754;20.158;2024-02-23T09:11:27;0.90;;;0.40;;
34064;SDS011;20339;49.754;20.158;2024-02-23T09:14:00;1.00;;;0.70;;
34064;SDS011;20339;49.754;20.158;2024-02-23T09:16:34;0.90;;;0.60;;
34064;SDS011;20339;49.754;20.158;2024-02-23T09:19:07;1.70;;;0.60;;
34064;SDS011;20339;49.754;20.158;2024-02-23T09:21:38;1.00;;;0.50;;
34064;SDS011;20339;49.754;20.158;2024-02-23T09:24:10;0.80;;;0.50;;
34064;SDS011;20339;49.754;20.158;2024-02-23T09:26:45;1.40;;;0.50;;
34064;SDS011;20339;49.754;20.158;2024-02-23T09:29:19;1.40;;;0.80;;
34064;SDS011;20339;49.754;20.158;2024-02-23T09:31:53;1.40;;;1.00;;
34064;SDS011;20339;49.754;20.158;2024-02-23T09:34:28;3.30;;;1.70;;
34064;SDS011;20339;49.754;20.158;2024-02-23T09:37:02;3.60;;;2.20;;
34064;SDS011;20339;49.754;20.158;2024-02-23T09:39:40;3.30;;;1.90;;
34064;SDS011;20339;49.754;20.158;2024-02-23T09:42:12;2.40;;;2.10;;
34064;SDS011;20339;49.754;20.158;2024-02-23T09:44:43;2.60;;;1.60;;
34064;SDS011;20339;49.754;20.158;2024-02-23T09:47:19;2.10;;;1.50;;
34064;SDS011;20339;49.754;20.158;2024-02-23T09:49:51;2.80;;;1.40;;
34064;SDS011;20339;49.754;20.158;2024-02-23T09:52:29;2.70;;;1.60;;
34064;SDS011;20339;49.754;20.158;2024-02-23T09:55:09;1.90;;;1.40;;
34064;SDS011;20339;49.754;20.158;2024-02-23T09:57:47;2.00;;;1.40;;
34064;SDS011;20339;49.754;20.158;2024-02-23T10:00:26;2.20;;;1.40;;
34064;SDS011;20339;49.754;20.158;2024-02-23T10:02:59;1.90;;;1.50;;
34064;SDS011;20339;49.754;20.158;2024-02-23T10:05:34;3.90;;;1.20;;
34064;SDS011;20339;49.754;20.158;2024-02-23T10:08:08;1.90;;;1.20;;
34064;SDS011;20339;49.754;20.158;2024-02-23T10:10:46;3.10;;;1.70;;
34064;SDS011;20339;49.754;20.158;2024-02-23T10:13:19;2.90;;;1.70;;
34064;SDS011;20339;49.754;20.158;2024-02-23T10:15:54;1.90;;;1.40;;
34064;SDS011;20339;49.754;20.158;2024-02-23T10:18:29;3.10;;;1.90;;
34064;SDS011;20339;49.754;20.158;2024-02-23T10:21:04;2.60;;;1.60;;
34064;SDS011;20339;49.754;20.158;2024-02-23T10:23:38;2.80;;;1.60;;
34064;SDS011;20339;49.754;20.158;2024-02-23T10:26:12;3.40;;;1.90;;
34064;SDS011;20339;49.754;20.158;2024-02-23T10:28:49;2.60;;;1.80;;
34064;SDS011;20339;49.754;20.158;2024-02-23T10:31:23;4.00;;;2.10;;
34064;SDS011;20339;49.754;20.158;2024-02-23T10:33:56;3.50;;;2.20;;
34064;SDS011;20339;49.754;20.158;2024-02-23T10:36:29;4.00;;;1.80;;
34064;SDS011;20339;49.754;20.158;2024-02-23T10:39:06;2.70;;;1.60;;
34064;SDS011;20339;49.754;20.158;2024-02-23T10:41:43;4.30;;;2.00;;
34064;SDS011;20339;49.754;20.158;2024-02-23T10:44:23;3.40;;;2.20;;
34064;SDS011;20339;49.754;20.158;2024-02-23T10:46:57;3.20;;;1.80;;
34064;SDS011;20339;49.754;20.158;2024-02-23T10:49:30;2.30;;;1.80;;
34064;SDS011;20339;49.754;20.158;2024-02-23T10:52:06;3.70;;;2.70;;
34064;SDS011;20339;49.754;20.158;2024-02-23T10:54:40;3.30;;;2.10;;
34064;SDS011;20339;49.754;20.158;2024-02-23T10:57:18;3.70;;;2.20;;
34064;SDS011;20339;49.754;20.158;2024-02-23T10:59:53;3.30;;;2.10;;
34064;SDS011;20339;49.754;20.158;2024-02-23T11:02:30;3.40;;;2.10;;
34064;SDS011;20339;49.754;20.158;2024-02-23T11:05:14;4.50;;;2.10;;
34064;SDS011;20339;49.754;20.158;2024-02-23T11:07:48;3.50;;;2.00;;
34064;SDS011;20339;49.754;20.158;2024-02-23T11:10:23;4.10;;;2.00;;
34064;SDS011;20339;49.754;20.158;2024-02-23T11:13:00;3.10;;;2.40;;
34064;SDS011;20339;49.754;20.158;2024-02-23T11:15:41;3.60;;;2.20;;
34064;SDS011;20339;49.754;20.158;2024-02-23T11:18:27;3.90;;;2.10;;
34064;SDS011;20339;49.754;20.158;2024-02-23T11:21:05;4.60;;;2.20;;
34064;SDS011;20339;49.754;20.158;2024-02-23T11:23:45;2.40;;;1.80;;
34064;SDS011;20339;49.754;20.158;2024-02-23T11:26:23;2.60;;;1.70;;
34064;SDS011;20339;49.754;20.158;2024-02-23T11:28:57;4.30;;;1.90;;
34064;SDS011;20339;49.754;20.158;2024-02-23T11:31:31;3.20;;;2.10;;
34064;SDS011;20339;49.754;20.158;2024-02-23T11:34:08;3.30;;;1.80;;
34064;SDS011;20339;49.754;20.158;2024-02-23T11:36:45;2.80;;;1.40;;
34064;SDS011;20339;49.754;20.158;2024-02-23T11:39:23;2.90;;;1.90;;
34064;SDS011;20339;49.754;20.158;2024-02-23T11:41:56;3.20;;;2.10;;
34064;SDS011;20339;49.754;20.158;2024-02-23T11:44:29;2.30;;;1.60;;
34064;SDS011;20339;49.754;20.158;2024-02-23T11:47:04;3.40;;;2.00;;
34064;SDS011;20339;49.754;20.158;2024-02-23T11:49:38;3.50;;;2.00;;
34064;SDS011;20339;49.754;20.158;2024-02-23T11:52:11;3.50;;;2.00;;
34064;SDS011;20339;49.754;20.158;2024-02-23T11:54:43;4.30;;;2.20;;
34064;SDS011;20339;49.754;20.158;2024-02-23T11:57:18;2.50;;;1.90;;
34064;SDS011;20339;49.754;20.158;2024-02-23T11:59:57;3.00;;;1.30;;
34064;SDS011;20339;49.754;20.158;2024-02-23T12:02:32;2.70;;;1.80;;
34064;SDS011;20339;49.754;20.158;2024-02-23T12:05:05;2.30;;;1.60;;
34064;SDS011;20339;49.754;20.158;2024-02-23T12:07:40;3.10;;;1.50;;
34064;SDS011;20339;49.754;20.158;2024-02-23T12:10:19;2.90;;;1.80;;
34064;SDS011;20339;49.754;20.158;2024-02-23T12:12:51;3.30;;;2.10;;
34064;SDS011;20339;49.754;20.158;2024-02-23T12:15:23;4.40;;;2.50;;
34064;SDS011;20339;49.754;20.158;2024-02-23T12:18:01;17.20;;;8.30;;
34064;SDS011;20339;49.754;20.158;2024-02-23T12:20:35;5.20;;;3.00;;
34064;SDS011;20339;49.754;20.158;2024-02-23T12:23:09;12.60;;;7.40;;
34064;SDS011;20339;49.754;20.158;2024-02-23T12:25:41;6.80;;;3.40;;
34064;SDS011;20339;49.754;20.158;2024-02-23T12:28:21;9.30;;;3.40;;
34064;SDS011;20339;49.754;20.158;2024-02-23T12:33:58;6.50;;;3.00;;
34064;SDS011;20339;49.754;20.158;2024-02-23T12:36:30;3.80;;;2.50;;
34064;SDS011;20339;49.754;20.158;2024-02-23T12:39:04;2.90;;;2.00;;
34064;SDS011;20339;49.754;20.158;2024-02-23T12:41:36;3.60;;;2.80;;
34064;SDS011;20339;49.754;20.158;2024-02-23T12:44:08;21.40;;;15.60;;
34064;SDS011;20339;49.754;20.158;2024-02-23T12:46:42;5.50;;;4.20;;
34064;SDS011;20339;49.754;20.158;2024-02-23T12:49:16;5.40;;;3.40;;
34064;SDS011;20339;49.754;20.158;2024-02-23T12:51:47;5.10;;;2.80;;
34064;SDS011;20339;49.754;20.158;2024-02-23T12:54:22;3.90;;;2.20;;
34064;SDS011;20339;49.754;20.158;2024-02-23T12:57:03;5.40;;;3.30;;
34064;SDS011;20339;49.754;20.158;2024-02-23T12:59:40;7.10;;;5.60;;
34064;SDS011;20339;49.754;20.158;2024-02-23T13:02:17;10.70;;;9.00;;
34064;SDS011;20339;49.754;20.158;2024-02-23T13:04:49;9.40;;;6.70;;
34064;SDS011;20339;49.754;20.158;2024-02-23T13:07:47;10.70;;;9.40;;
34064;SDS011;20339;49.754;20.158;2024-02-23T13:10:21;8.10;;;5.60;;
34064;SDS011;20339;49.754;20.158;2024-02-23T13:12:59;7.30;;;5.80;;
34064;SDS011;20339;49.754;20.158;2024-02-23T13:15:31;5.90;;;3.10;;
34064;SDS011;20339;49.754;20.158;2024-02-23T13:18:02;4.30;;;2.70;;
34064;SDS011;20339;49.754;20.158;2024-02-23T13:20:34;6.50;;;4.20;;
34064;SDS011;20339;49.754;20.158;2024-02-23T13:23:06;5.10;;;3.00;;
34064;SDS011;20339;49.754;20.158;2024-02-23T13:25:42;11.50;;;8.10;;
34064;SDS011;20339;49.754;20.158;2024-02-23T13:28:16;9.90;;;7.30;;
34064;SDS011;20339;49.754;20.158;2024-02-23T13:30:47;8.80;;;7.10;;
34064;SDS011;20339;49.754;20.158;2024-02-23T13:33:20;3.90;;;2.20;;
34064;SDS011;20339;49.754;20.158;2024-02-23T13:35:52;3.60;;;2.50;;
34064;SDS011;20339;49.754;20.158;2024-02-23T13:38:28;2.60;;;2.30;;
34064;SDS011;20339;49.754;20.158;2024-02-23T13:41:06;3.60;;;2.50;;
34064;SDS011;20339;49.754;20.158;2024-02-23T13:43:39;6.20;;;4.10;;
34064;SDS011;20339;49.754;20.158;2024-02-23T13:46:11;4.30;;;3.20;;
34064;SDS011;20339;49.754;20.158;2024-02-23T13:48:46;5.30;;;3.10;;
34064;SDS011;20339;49.754;20.158;2024-02-23T13:51:35;5.90;;;3.50;;
34064;SDS011;20339;49.754;20.158;2024-02-23T13:54:12;5.30;;;3.10;;
34064;SDS011;20339;49.754;20.158;2024-02-23T13:56:46;5.60;;;3.50;;
34064;SDS011;20339;49.754;20.158;2024-02-23T13:59:20;5.20;;;3.60;;
34064;SDS011;20339;49.754;20.158;2024-02-23T14:01:54;4.60;;;3.10;;
34064;SDS011;20339;49.754;20.158;2024-02-23T14:04:28;6.30;;;3.40;;
34064;SDS011;20339;49.754;20.158;2024-02-23T14:07:06;4.50;;;2.80;;
34064;SDS011;20339;49.754;20.158;2024-02-23T14:09:37;4.40;;;2.90;;
34064;SDS011;20339;49.754;20.158;2024-02-23T14:12:09;5.50;;;3.20;;
34064;SDS011;20339;49.754;20.158;2024-02-23T14:14:43;7.70;;;4.50;;
34064;SDS011;20339;49.754;20.158;2024-02-23T14:17:16;13.70;;;6.00;;
34064;SDS011;20339;49.754;20.158;2024-02-23T14:19:50;17.00;;;8.20;;
34064;SDS011;20339;49.754;20.158;2024-02-23T14:22:21;15.20;;;7.70;;
34064;SDS011;20339;49.754;20.158;2024-02-23T14:24:53;12.80;;;7.00;;
34064;SDS011;20339;49.754;20.158;2024-02-23T14:27:28;13.40;;;6.30;;
34064;SDS011;20339;49.754;20.158;2024-02-23T14:30:16;7.80;;;4.20;;
34064;SDS011;20339;49.754;20.158;2024-02-23T14:32:47;5.60;;;3.20;;
34064;SDS011;20339;49.754;20.158;2024-02-23T14:35:21;5.10;;;2.10;;
34064;SDS011;20339;49.754;20.158;2024-02-23T14:37:52;3.00;;;1.90;;
34064;SDS011;20339;49.754;20.158;2024-02-23T14:40:23;5.20;;;2.00;;
34064;SDS011;20339;49.754;20.158;2024-02-23T14:42:58;12.40;;;6.30;;
34064;SDS011;20339;49.754;20.158;2024-02-23T14:45:30;14.30;;;7.70;;
34064;SDS011;20339;49.754;20.158;2024-02-23T14:48:05;17.70;;;8.10;;
34064;SDS011;20339;49.754;20.158;2024-02-23T14:50:39;6.30;;;3.30;;
34064;SDS011;20339;49.754;20.158;2024-02-23T14:53:10;3.60;;;2.30;;
34064;SDS011;20339;49.754;20.158;2024-02-23T14:55:45;5.00;;;2.50;;
34064;SDS011;20339;49.754;20.158;2024-02-23T14:58:19;6.10;;;3.00;;
34064;SDS011;20339;49.754;20.158;2024-02-23T15:01:00;3.90;;;2.50;;
34064;SDS011;20339;49.754;20.158;2024-02-23T15:03:34;30.50;;;16.60;;
34064;SDS011;20339;49.754;20.158;2024-02-23T15:06:06;26.60;;;14.60;;
34064;SDS011;20339;49.754;20.158;2024-02-23T15:08:38;22.50;;;11.80;;
34064;SDS011;20339;49.754;20.158;2024-02-23T15:11:15;6.70;;;3.40;;
34064;SDS011;20339;49.754;20.158;2024-02-23T15:13:46;5.10;;;3.00;;
34064;SDS011;20339;49.754;20.158;2024-02-23T15:16:25;5.30;;;2.70;;
34064;SDS011;20339;49.754;20.158;2024-02-23T15:19:02;5.40;;;2.60;;